createdAt,value
2022-11-24T00:01:04.529Z,80.56
2022-11-24T00:02:36.351Z,80.41
2022-11-24T00:04:08.137Z,80.58
2022-11-24T00:05:39.852Z,80.78
2022-11-24T00:07:12.837Z,80.38
2022-11-24T00:08:46.342Z,80.31
2022-11-24T00:10:18.070Z,80.68
2022-11-24T00:11:49.735Z,79.96
2022-11-24T00:13:21.424Z,80.33
2022-11-24T00:14:53.035Z,79.74
2022-11-24T00:16:26.914Z,80.12
2022-11-24T00:17:58.607Z,79.93
2022-11-24T00:19:30.255Z,79.53
2022-11-24T00:21:02.389Z,79.56
2022-11-24T00:22:35.340Z,79.69
2022-11-24T00:24:07.117Z,79.53
2022-11-24T00:25:38.729Z,79.85
2022-11-24T00:27:10.496Z,79.95
2022-11-24T00:28:43.516Z,79.76
2022-11-24T00:30:15.634Z,79.51
2022-11-24T00:31:47.233Z,79.43
2022-11-24T00:33:18.820Z,79.07
2022-11-24T00:34:50.422Z,78.87
2022-11-24T00:36:23.900Z,78.66
2022-11-24T00:37:56.841Z,79.11
2022-11-24T00:39:28.530Z,78.80
2022-11-24T00:41:00.166Z,79.08
2022-11-24T00:42:31.767Z,78.74
2022-11-24T00:44:03.759Z,78.61
2022-11-24T00:45:35.363Z,78.55
2022-11-24T00:47:07.099Z,78.60
2022-11-24T00:48:38.943Z,78.40
2022-11-24T00:50:10.722Z,78.73
2022-11-24T00:51:42.399Z,78.49
2022-11-24T00:53:15.391Z,78.39
2022-11-24T00:54:47.033Z,78.44
2022-11-24T00:56:19.124Z,77.94
2022-11-24T00:57:51.240Z,77.77
2022-11-24T00:59:22.875Z,78.22
2022-11-24T01:00:54.605Z,77.69
2022-11-24T01:02:26.810Z,78.24
2022-11-24T01:04:01.225Z,77.64
2022-11-24T01:05:35.888Z,78.17
2022-11-24T01:07:07.650Z,77.98
2022-11-24T01:08:41.499Z,77.65
2022-11-24T01:10:13.137Z,77.45
2022-11-24T01:12:03.986Z,77.55
2022-11-24T01:13:35.764Z,77.93
2022-11-24T01:15:08.136Z,77.39
2022-11-24T01:16:39.797Z,77.31
2022-11-24T01:18:13.120Z,77.59
2022-11-24T01:19:47.111Z,77.40
2022-11-24T01:21:20.130Z,77.59
2022-11-24T01:22:51.801Z,77.42
2022-11-24T01:24:25.176Z,77.53
2022-11-24T01:25:56.781Z,77.40
2022-11-24T01:27:28.490Z,77.09
2022-11-24T01:29:00.096Z,77.35
2022-11-24T01:30:31.811Z,77.13
2022-11-24T01:32:03.756Z,77.46
2022-11-24T01:33:35.666Z,77.64
2022-11-24T01:35:08.608Z,77.60
2022-11-24T01:36:40.295Z,77.24
2022-11-24T01:38:11.929Z,77.11
2022-11-24T01:39:44.939Z,77.23
2022-11-24T01:41:19.219Z,77.23
2022-11-24T01:42:52.264Z,77.75
2022-11-24T01:44:26.227Z,77.80
2022-11-24T01:46:01.942Z,77.07
2022-11-24T01:47:36.337Z,77.13
2022-11-24T01:49:13.455Z,77.54
2022-11-24T01:50:46.343Z,77.56
2022-11-24T01:52:25.930Z,77.13
2022-11-24T01:54:00.744Z,77.26
2022-11-24T01:55:36.975Z,76.72
2022-11-24T01:57:16.990Z,77.12
2022-11-24T01:58:50.309Z,76.62
2022-11-24T02:00:22.448Z,76.96
2022-11-24T02:01:56.759Z,76.93
2022-11-24T02:03:32.783Z,76.86
2022-11-24T02:05:10.104Z,76.65
2022-11-24T02:06:45.751Z,76.68
2022-11-24T02:08:22.833Z,76.75
2022-11-24T02:09:57.841Z,76.36
2022-11-24T02:11:34.794Z,76.18
2022-11-24T02:13:06.507Z,76.14
2022-11-24T02:14:40.358Z,76.50
2022-11-24T02:16:12.728Z,76.27
2022-11-24T02:17:44.783Z,76.29
2022-11-24T02:19:25.361Z,76.37
2022-11-24T02:20:57.261Z,76.28
2022-11-24T02:22:37.788Z,76.21
2022-11-24T02:24:16.174Z,76.40
2022-11-24T02:25:56.165Z,76.26
2022-11-24T02:27:29.164Z,76.35
2022-11-24T02:29:00.923Z,76.12
2022-11-24T02:30:32.835Z,76.21
2022-11-24T02:32:08.123Z,75.95
2022-11-24T02:33:40.638Z,75.71
2022-11-24T02:35:13.585Z,76.11
2022-11-24T02:36:45.184Z,76.02
2022-11-24T02:38:16.824Z,76.08
2022-11-24T02:39:48.409Z,75.92
2022-11-24T02:41:23.628Z,75.78
2022-11-24T02:42:59.189Z,75.90
2022-11-24T02:44:35.237Z,75.80
2022-11-24T02:46:07.264Z,75.67
2022-11-24T02:47:38.903Z,75.93
2022-11-24T02:49:10.486Z,75.68
2022-11-24T02:50:42.198Z,75.48
2022-11-24T02:52:13.931Z,75.88
2022-11-24T02:53:45.783Z,75.79
2022-11-24T02:55:17.559Z,75.71
2022-11-24T02:56:49.169Z,75.96
2022-11-24T02:58:22.139Z,75.79
2022-11-24T02:59:53.735Z,75.69
2022-11-24T03:01:25.451Z,75.93
2022-11-24T03:02:57.185Z,75.94
2022-11-24T03:04:28.910Z,75.83
2022-11-24T03:06:00.567Z,75.80
2022-11-24T03:07:32.219Z,75.97
2022-11-24T03:09:04.112Z,75.71
2022-11-24T03:10:35.834Z,75.85
2022-11-24T03:12:07.788Z,75.55
2022-11-24T03:13:40.777Z,75.57
2022-11-24T03:15:12.373Z,75.29
2022-11-24T03:16:43.999Z,75.66
2022-11-24T03:18:15.619Z,75.42
2022-11-24T03:19:47.253Z,75.69
2022-11-24T03:21:19.228Z,75.53
2022-11-24T03:22:50.952Z,75.43
2022-11-24T03:24:22.538Z,75.47
2022-11-24T03:25:54.939Z,75.61
2022-11-24T03:27:26.656Z,75.48
2022-11-24T03:28:59.785Z,75.94
2022-11-24T03:30:31.425Z,75.59
2022-11-24T03:32:03.200Z,75.52
2022-11-24T03:33:35.120Z,75.63
2022-11-24T03:35:07.632Z,75.69
2022-11-24T03:36:39.290Z,75.59
2022-11-24T03:38:10.934Z,75.46
2022-11-24T03:39:42.674Z,75.27
2022-11-24T03:41:14.344Z,75.29
2022-11-24T03:42:45.991Z,75.38
2022-11-24T03:44:18.947Z,75.48
2022-11-24T03:45:50.615Z,75.46
2022-11-24T03:47:22.293Z,75.71
2022-11-24T03:48:53.925Z,75.28
2022-11-24T03:50:25.531Z,75.54
2022-11-24T03:51:57.162Z,75.41
2022-11-24T03:53:30.936Z,75.42
2022-11-24T03:55:02.561Z,75.32
2022-11-24T03:56:34.146Z,75.53
2022-11-24T03:58:05.723Z,75.50
2022-11-24T03:59:39.130Z,75.57
2022-11-24T04:01:10.959Z,75.37
2022-11-24T04:02:42.618Z,75.15
2022-11-24T04:04:14.582Z,75.29
2022-11-24T04:05:46.509Z,75.30
2022-11-24T04:07:18.479Z,75.26
2022-11-24T04:08:50.100Z,75.32
2022-11-24T04:10:21.695Z,75.29
2022-11-24T04:12:11.948Z,75.65
2022-11-24T04:13:47.354Z,75.86
2022-11-24T04:15:20.673Z,75.66
2022-11-24T04:16:52.294Z,75.90
2022-11-24T04:18:23.982Z,76.18
2022-11-24T04:19:55.729Z,75.81
2022-11-24T04:21:27.379Z,75.84
2022-11-24T04:22:59.068Z,76.32
2022-11-24T04:24:30.871Z,75.95
2022-11-24T04:26:02.625Z,76.52
2022-11-24T04:27:34.885Z,76.69
2022-11-24T04:29:06.528Z,76.39
2022-11-24T04:30:44.387Z,76.50
2022-11-24T04:32:16.079Z,76.56
2022-11-24T04:33:47.652Z,76.13
2022-11-24T04:35:20.079Z,76.27
2022-11-24T04:36:51.687Z,76.62
2022-11-24T04:39:23.808Z,76.28
2022-11-24T04:40:15.024Z,76.28
2022-11-24T04:41:47.520Z,75.61
2022-11-24T04:43:20.003Z,75.86
2022-11-24T04:44:51.822Z,76.17
2022-11-24T04:46:24.803Z,76.39
2022-11-24T04:47:56.412Z,76.33
2022-11-24T04:49:28.230Z,76.71
2022-11-24T04:51:04.172Z,76.58
2022-11-24T04:52:35.800Z,76.22
2022-11-24T04:54:09.409Z,76.51
2022-11-24T04:55:41.299Z,76.25
2022-11-24T04:57:15.883Z,76.07
2022-11-24T04:58:47.939Z,76.25
2022-11-24T05:00:19.824Z,76.16
2022-11-24T05:01:52.854Z,76.25
2022-11-24T05:03:24.473Z,75.93
2022-11-24T05:04:56.141Z,76.11
2022-11-24T05:06:27.841Z,76.37
2022-11-24T05:07:59.916Z,76.42
2022-11-24T05:09:54.950Z,76.54
2022-11-24T05:11:23.290Z,76.46
2022-11-24T05:12:56.534Z,76.28
2022-11-24T05:14:28.287Z,76.47
2022-11-24T05:16:01.248Z,76.28
2022-11-24T05:17:36.123Z,76.28
2022-11-24T05:19:08.412Z,76.13
2022-11-24T05:20:40.014Z,76.44
2022-11-24T05:22:11.671Z,76.48
2022-11-24T05:23:43.312Z,76.71
2022-11-24T05:25:15.435Z,76.55
2022-11-24T05:26:47.097Z,76.80
2022-11-24T05:28:19.453Z,76.97
2022-11-24T05:29:51.057Z,76.91
2022-11-24T05:31:22.856Z,77.16
2022-11-24T05:32:55.891Z,76.94
2022-11-24T05:34:28.331Z,77.50
2022-11-24T05:36:01.441Z,77.41
2022-11-24T05:37:33.052Z,77.39
2022-11-24T05:39:04.669Z,77.52
2022-11-24T05:40:36.491Z,77.40
2022-11-24T05:42:26.768Z,77.34
2022-11-24T05:43:58.465Z,77.34
2022-11-24T05:45:30.568Z,77.08
2022-11-24T05:47:02.239Z,76.98
2022-11-24T05:48:35.277Z,77.22
2022-11-24T05:50:07.839Z,77.27
2022-11-24T05:51:39.523Z,76.70
2022-11-24T05:53:13.199Z,77.03
2022-11-24T05:54:44.850Z,77.19
2022-11-24T05:56:16.603Z,77.06
2022-11-24T05:57:48.382Z,76.67
2022-11-24T05:59:20.097Z,76.95
2022-11-24T06:00:51.725Z,76.63
2022-11-24T06:02:23.508Z,76.58
2022-11-24T06:03:56.610Z,76.38
2022-11-24T06:05:29.828Z,76.45
2022-11-24T06:07:01.790Z,76.70
2022-11-24T06:08:34.130Z,76.32
2022-11-24T06:10:06.123Z,76.25
2022-11-24T06:11:37.819Z,76.12
2022-11-24T06:13:09.569Z,76.19
2022-11-24T06:14:41.807Z,76.01
2022-11-24T06:16:13.593Z,75.80
2022-11-24T06:17:52.034Z,75.80
2022-11-24T06:19:25.342Z,75.79
2022-11-24T06:21:10.267Z,75.52
2022-11-24T06:22:42.748Z,75.79
2022-11-24T06:24:14.803Z,75.57
2022-11-24T06:25:51.421Z,75.69
2022-11-24T06:27:23.610Z,75.88
2022-11-24T06:28:55.621Z,75.03
2022-11-24T06:30:27.235Z,75.08
2022-11-24T06:31:58.943Z,74.80
2022-11-24T06:33:32.248Z,74.99
2022-11-24T06:35:06.478Z,74.46
2022-11-24T06:36:38.313Z,74.05
2022-11-24T06:38:10.659Z,74.11
2022-11-24T06:39:42.573Z,73.71
2022-11-24T06:41:16.242Z,73.87
2022-11-24T06:42:51.321Z,74.34
2022-11-24T06:44:22.948Z,73.93
2022-11-24T06:45:54.612Z,73.83
2022-11-24T06:47:26.340Z,73.66
2022-11-24T06:48:59.611Z,73.50
2022-11-24T06:50:33.863Z,72.91
2022-11-24T06:52:05.609Z,73.56
2022-11-24T06:53:38.715Z,73.34
2022-11-24T06:55:10.459Z,72.68
2022-11-24T06:56:42.107Z,72.57
2022-11-24T06:58:14.066Z,72.51
2022-11-24T06:59:45.671Z,73.25
2022-11-24T07:01:18.737Z,72.99
2022-11-24T07:02:50.606Z,73.06
2022-11-24T07:04:22.271Z,73.34
2022-11-24T07:05:58.064Z,73.18
2022-11-24T07:07:29.729Z,73.38
2022-11-24T07:09:01.479Z,73.09
2022-11-24T07:10:33.457Z,73.23
2022-11-24T07:12:06.025Z,73.62
2022-11-24T07:13:37.759Z,73.01
2022-11-24T07:15:10.262Z,73.08
2022-11-24T07:16:42.352Z,73.37
2022-11-24T07:18:14.320Z,73.01
2022-11-24T07:19:46.209Z,72.66
2022-11-24T07:21:20.290Z,73.34
2022-11-24T07:22:56.072Z,73.24
2022-11-24T07:24:27.761Z,73.10
2022-11-24T07:26:06.533Z,73.26
2022-11-24T07:27:38.680Z,72.32
2022-11-24T07:29:10.391Z,72.52
2022-11-24T07:30:42.038Z,72.52
2022-11-24T07:32:13.753Z,72.54
2022-11-24T07:33:48.308Z,72.50
2022-11-24T07:35:19.964Z,72.41
2022-11-24T07:36:53.045Z,72.77
2022-11-24T07:38:24.653Z,72.96
2022-11-24T07:39:56.277Z,72.86
2022-11-24T07:41:27.942Z,72.54
2022-11-24T07:43:00.348Z,72.68
2022-11-24T07:44:32.140Z,72.54
2022-11-24T07:46:06.375Z,72.43
2022-11-24T07:47:39.452Z,72.39
2022-11-24T07:49:11.098Z,72.73
2022-11-24T07:50:42.708Z,72.74
2022-11-24T07:52:15.676Z,72.34
2022-11-24T07:53:47.378Z,72.06
2022-11-24T07:55:19.143Z,72.28
2022-11-24T07:56:50.807Z,72.26
2022-11-24T07:58:22.971Z,71.97
2022-11-24T07:59:54.683Z,72.42
2022-11-24T08:01:26.395Z,72.17
2022-11-24T08:02:58.051Z,72.32
2022-11-24T08:04:29.599Z,72.38
2022-11-24T08:06:39.878Z,72.22
2022-11-24T08:07:54.533Z,72.08
2022-11-24T08:09:26.237Z,72.58
2022-11-24T08:10:57.838Z,72.48
2022-11-24T08:12:29.605Z,72.21
2022-11-24T08:14:01.257Z,72.52
2022-11-24T08:15:32.912Z,72.58
2022-11-24T08:17:04.631Z,73.09
2022-11-24T08:18:37.290Z,72.63
2022-11-24T08:20:10.402Z,72.95
2022-11-24T08:21:42.061Z,72.68
2022-11-24T08:23:15.249Z,72.95
2022-11-24T08:24:48.684Z,72.53
2022-11-24T08:26:20.379Z,72.70
2022-11-24T08:27:52.074Z,72.69
2022-11-24T08:29:28.380Z,72.52
2022-11-24T08:31:05.071Z,72.63
2022-11-24T08:32:36.755Z,72.80
2022-11-24T08:34:08.533Z,72.58
2022-11-24T08:35:40.364Z,72.45
2022-11-24T08:37:12.388Z,72.47
2022-11-24T08:38:46.199Z,72.40
2022-11-24T08:40:17.953Z,72.11
2022-11-24T08:41:49.573Z,72.37
2022-11-24T08:43:21.161Z,72.14
2022-11-24T08:44:58.820Z,71.79
2022-11-24T08:46:30.821Z,72.08
2022-11-24T08:48:02.493Z,71.86
2022-11-24T08:49:34.236Z,72.23
2022-11-24T08:51:08.044Z,72.31
2022-11-24T08:52:39.743Z,72.22
2022-11-24T08:54:15.231Z,72.37
2022-11-24T08:55:46.882Z,72.47
2022-11-24T08:57:21.738Z,72.21
2022-11-24T08:58:54.131Z,71.97
2022-11-24T09:00:25.880Z,72.22
2022-11-24T09:01:57.543Z,72.25
2022-11-24T09:03:29.336Z,71.94
2022-11-24T09:05:00.982Z,72.15
2022-11-24T09:06:32.624Z,72.17
2022-11-24T09:08:04.712Z,72.07
2022-11-24T09:09:37.720Z,71.55
2022-11-24T09:11:11.192Z,71.80
2022-11-24T09:12:44.130Z,71.61
2022-11-24T09:14:15.794Z,70.94
2022-11-24T09:15:47.425Z,71.22
2022-11-24T09:17:19.003Z,71.55
2022-11-24T09:18:55.095Z,71.03
2022-11-24T09:20:26.685Z,71.30
2022-11-24T09:21:58.314Z,70.98
2022-11-24T09:23:29.945Z,71.61
2022-11-24T09:25:02.969Z,71.57
2022-11-24T09:26:36.816Z,71.68
2022-11-24T09:28:08.458Z,71.40
2022-11-24T09:29:40.116Z,71.09
2022-11-24T09:31:13.767Z,70.71
2022-11-24T09:32:45.470Z,70.14
2022-11-24T09:34:17.310Z,70.00
2022-11-24T09:35:49.739Z,70.18
2022-11-24T09:37:21.394Z,70.08
2022-11-24T09:38:53.302Z,69.83
2022-11-24T09:40:27.032Z,69.73
2022-11-24T09:42:08.261Z,69.95
2022-11-24T09:43:45.920Z,69.78
2022-11-24T09:45:57.100Z,70.04
2022-11-24T09:47:28.037Z,69.79
2022-11-24T09:49:04.213Z,69.84
2022-11-24T09:50:38.643Z,69.09
2022-11-24T09:52:16.687Z,69.27
2022-11-24T09:53:55.017Z,69.57
2022-11-24T09:55:39.073Z,68.54
2022-11-24T09:57:12.529Z,68.66
2022-11-24T09:58:48.290Z,68.50
2022-11-24T10:00:20.173Z,68.69
2022-11-24T10:01:52.571Z,68.44
2022-11-24T10:03:29.511Z,68.65
2022-11-24T10:05:01.274Z,69.12
2022-11-24T10:06:39.400Z,68.58
2022-11-24T10:08:23.759Z,68.14
2022-11-24T10:10:03.293Z,68.06
2022-11-24T10:11:42.921Z,68.46
2022-11-24T10:13:33.244Z,67.95
2022-11-24T10:15:24.424Z,68.32
2022-11-24T10:17:07.336Z,67.34
2022-11-24T10:18:56.736Z,67.15
2022-11-24T10:20:40.477Z,67.86
2022-11-24T10:22:28.969Z,67.92
2022-11-24T10:24:35.484Z,67.16
2022-11-24T10:26:13.071Z,67.83
2022-11-24T10:27:50.264Z,67.16
2022-11-24T10:29:27.041Z,67.69
2022-11-24T10:31:13.307Z,67.43
2022-11-24T10:32:47.860Z,67.10
2022-11-24T10:34:25.031Z,67.50
2022-11-24T10:36:04.064Z,67.27
2022-11-24T10:37:40.604Z,67.17
2022-11-24T10:39:19.845Z,66.30
2022-11-24T10:40:58.244Z,67.01
2022-11-24T10:42:31.923Z,66.33
2022-11-24T10:44:05.010Z,65.92
2022-11-24T10:45:39.189Z,66.83
2022-11-24T10:47:18.598Z,66.32
2022-11-24T10:48:53.552Z,66.69
2022-11-24T10:50:27.383Z,67.16
2022-11-24T10:52:05.911Z,66.29
2022-11-24T10:53:41.930Z,66.95
2022-11-24T10:55:13.655Z,66.42
2022-11-24T10:56:47.193Z,66.54
2022-11-24T10:58:23.649Z,66.42
2022-11-24T10:59:56.886Z,66.67
2022-11-24T11:01:32.814Z,66.94
2022-11-24T11:03:20.900Z,66.63
2022-11-24T11:04:52.685Z,67.20
2022-11-24T11:06:26.646Z,66.77
2022-11-24T11:08:17.096Z,66.96
2022-11-24T11:09:49.375Z,66.62
2022-11-24T11:11:27.339Z,67.01
2022-11-24T11:12:59.013Z,66.05
2022-11-24T11:14:32.410Z,66.30
2022-11-24T11:16:24.158Z,66.26
2022-11-24T11:18:00.895Z,66.06
2022-11-24T11:19:55.473Z,66.26
2022-11-24T11:21:33.145Z,66.20
2022-11-24T11:23:16.702Z,65.90
2022-11-24T11:25:03.213Z,65.66
2022-11-24T11:26:37.727Z,65.61
2022-11-24T11:28:29.582Z,65.50
2022-11-24T11:34:23.200Z,65.62
2022-11-24T11:36:01.487Z,66.32
2022-11-24T11:37:33.711Z,65.70
2022-11-24T11:39:05.871Z,65.96
2022-11-24T11:40:37.823Z,65.56
2022-11-24T11:42:45.284Z,64.97
2022-11-24T11:44:21.492Z,65.57
2022-11-24T11:46:01.490Z,65.12
2022-11-24T11:47:38.272Z,65.07
2022-11-24T11:49:12.198Z,65.58
2022-11-24T11:53:00.440Z,65.74
2022-11-24T11:54:50.011Z,65.05
2022-11-24T11:56:25.904Z,65.03
2022-11-24T11:58:10.133Z,65.33
2022-11-24T12:00:01.892Z,65.74
2022-11-24T12:01:46.852Z,65.29
2022-11-24T12:03:57.925Z,65.44
2022-11-24T12:05:34.860Z,65.64
2022-11-24T12:07:33.082Z,64.88
2022-11-24T12:09:21.325Z,65.30
2022-11-24T12:11:02.407Z,65.38
2022-11-24T12:12:46.941Z,65.26
2022-11-24T12:14:29.605Z,64.84
2022-11-24T12:16:09.826Z,66.24
2022-11-24T12:17:48.037Z,66.04
2022-11-24T12:19:34.182Z,65.41
2022-11-24T12:21:17.950Z,65.98
2022-11-24T12:23:02.867Z,65.55
2022-11-24T12:24:45.025Z,65.88
2022-11-24T12:26:26.921Z,65.75
2022-11-24T12:28:13.092Z,65.79
2022-11-24T12:30:12.716Z,66.08
2022-11-24T12:31:57.076Z,65.72
2022-11-24T12:33:49.138Z,65.16
2022-11-24T12:35:28.675Z,65.52
2022-11-24T12:37:18.560Z,65.36
2022-11-24T12:38:58.291Z,65.10
2022-11-24T12:40:40.901Z,65.18
2022-11-24T12:42:30.108Z,64.71
2022-11-24T12:44:02.869Z,65.46
2022-11-24T12:45:42.968Z,66.05
2022-11-24T12:47:17.728Z,65.51
2022-11-24T12:48:59.674Z,65.41
2022-11-24T12:50:37.456Z,63.93
2022-11-24T12:52:19.456Z,64.27
2022-11-24T12:53:52.949Z,63.31
2022-11-24T12:55:25.572Z,64.15
2022-11-24T12:57:04.676Z,64.37
2022-11-24T12:58:45.653Z,63.46
2022-11-24T13:00:21.879Z,63.58
2022-11-24T13:02:04.536Z,63.18
2022-11-24T13:03:45.149Z,62.70
2022-11-24T13:05:23.192Z,62.37
2022-11-24T13:07:01.422Z,62.41
2022-11-24T13:08:36.651Z,62.37
2022-11-24T13:10:54.133Z,61.83
2022-11-24T13:12:22.094Z,62.16
2022-11-24T13:14:00.680Z,62.18
2022-11-24T13:16:07.051Z,62.47
2022-11-24T13:18:02.853Z,61.89
2022-11-24T13:19:38.034Z,62.18
2022-11-24T13:21:42.988Z,61.68
2022-11-24T13:23:25.259Z,61.86
2022-11-24T13:25:16.251Z,61.73
2022-11-24T13:26:50.422Z,62.05
2022-11-24T13:29:03.535Z,61.01
2022-11-24T13:31:08.003Z,60.75
2022-11-24T13:33:00.203Z,60.68
2022-11-24T13:34:57.163Z,60.77
2022-11-24T13:36:33.996Z,61.29
2022-11-24T13:38:39.935Z,61.13
2022-11-24T13:40:45.842Z,60.69
2022-11-24T13:42:44.088Z,61.61
2022-11-24T13:44:25.287Z,61.37
2022-11-24T13:45:57.073Z,61.54
2022-11-24T13:47:34.434Z,60.93
2022-11-24T13:49:14.224Z,61.86
2022-11-24T13:51:17.201Z,61.93
2022-11-24T13:52:52.223Z,62.08
2022-11-24T13:54:27.320Z,62.51
2022-11-24T13:56:00.832Z,62.04
2022-11-24T13:57:34.159Z,62.15
2022-11-24T13:59:17.245Z,62.55
2022-11-24T14:01:19.438Z,62.27
2022-11-24T14:02:53.855Z,62.93
2022-11-24T14:04:31.103Z,62.16
2022-11-24T14:06:04.573Z,62.28
2022-11-24T14:07:36.341Z,62.13
2022-11-24T14:09:28.350Z,62.48
2022-11-24T14:11:01.686Z,62.39
2022-11-24T14:12:33.989Z,62.86
2022-11-24T14:14:16.039Z,61.82
2022-11-24T14:15:59.448Z,61.84
2022-11-24T14:17:31.421Z,62.02
2022-11-24T14:19:09.807Z,62.71
2022-11-24T14:20:42.874Z,62.26
2022-11-24T14:22:17.927Z,62.86
2022-11-24T14:23:53.174Z,62.61
2022-11-24T14:25:29.966Z,62.90
2022-11-24T14:27:01.692Z,63.07
2022-11-24T14:28:33.393Z,63.28
2022-11-24T14:30:18.743Z,62.56
2022-11-24T14:31:53.572Z,62.71
2022-11-24T14:33:25.607Z,63.42
2022-11-24T14:34:57.421Z,63.13
2022-11-24T14:36:30.519Z,62.82
2022-11-24T14:38:04.084Z,63.46
2022-11-24T14:39:40.982Z,62.73
2022-11-24T14:41:25.337Z,62.69
2022-11-24T14:42:57.073Z,62.76
2022-11-24T14:44:31.609Z,62.59
2022-11-24T14:46:05.936Z,62.53
2022-11-24T14:47:45.092Z,62.50
2022-11-24T14:49:20.016Z,62.58
2022-11-24T14:50:51.910Z,62.88
2022-11-24T14:52:26.017Z,62.54
2022-11-24T14:54:01.723Z,63.29
2022-11-24T14:55:39.072Z,62.98
2022-11-24T14:57:24.274Z,62.61
2022-11-24T14:58:57.377Z,63.33
2022-11-24T15:00:31.567Z,63.69
2022-11-24T15:02:24.105Z,63.43
2022-11-24T15:04:17.931Z,63.25
2022-11-24T15:06:00.947Z,63.54
2022-11-24T15:07:37.257Z,62.92
2022-11-24T15:09:25.372Z,64.07
2022-11-24T15:11:00.357Z,63.68
2022-11-24T15:12:36.436Z,63.41
2022-11-24T15:14:31.514Z,64.31
2022-11-24T15:16:06.624Z,63.80
2022-11-24T15:17:46.302Z,64.19
2022-11-24T15:19:18.091Z,64.53
2022-11-24T15:20:49.811Z,64.68
2022-11-24T15:22:35.751Z,64.83
2022-11-24T15:24:16.915Z,65.14
2022-11-24T15:25:49.815Z,64.95
2022-11-24T15:27:21.485Z,64.80
2022-11-24T15:28:53.163Z,64.74
2022-11-24T15:30:25.402Z,64.66
2022-11-24T15:31:58.629Z,65.44
2022-11-24T15:33:31.074Z,64.43
2022-11-24T15:35:02.885Z,64.63
2022-11-24T15:36:34.579Z,64.70
2022-11-24T15:38:07.661Z,64.82
2022-11-24T15:39:39.373Z,65.38
2022-11-24T15:41:19.047Z,65.04
2022-11-24T15:42:52.327Z,65.58
2022-11-24T15:44:23.992Z,65.06
2022-11-24T15:45:55.900Z,65.35
2022-11-24T15:47:27.551Z,65.90
2022-11-24T15:48:59.225Z,64.83
2022-11-24T15:50:30.911Z,65.68
2022-11-24T15:52:02.603Z,64.96
2022-11-24T15:53:38.945Z,65.46
2022-11-24T15:55:18.237Z,65.58
2022-11-24T15:56:49.899Z,65.54
2022-11-24T15:58:21.556Z,66.26
2022-11-24T15:59:54.825Z,65.64
2022-11-24T16:01:34.328Z,66.09
2022-11-24T16:03:38.464Z,66.12
2022-11-24T16:04:57.948Z,65.84
2022-11-24T16:06:29.859Z,66.54
2022-11-24T16:08:01.747Z,66.44
2022-11-24T16:09:34.837Z,66.68
2022-11-24T16:11:06.682Z,66.12
2022-11-24T16:12:38.328Z,66.02
2022-11-24T16:14:10.016Z,66.44
2022-11-24T16:15:41.763Z,66.69
2022-11-24T16:17:13.438Z,65.73
2022-11-24T16:18:45.462Z,66.22
2022-11-24T16:20:17.779Z,66.19
2022-11-24T16:21:49.676Z,66.31
2022-11-24T16:23:21.439Z,65.95
2022-11-24T16:24:54.502Z,66.10
2022-11-24T16:26:26.257Z,66.44
2022-11-24T16:27:58.390Z,66.80
2022-11-24T16:29:34.011Z,66.60
2022-11-24T16:31:08.691Z,65.94
2022-11-24T16:32:40.505Z,66.94
2022-11-24T16:34:12.473Z,66.32
2022-11-24T16:35:46.816Z,66.56
2022-11-24T16:37:18.857Z,66.33
2022-11-24T16:38:50.668Z,66.13
2022-11-24T16:40:23.766Z,66.52
2022-11-24T16:41:55.382Z,66.42
2022-11-24T16:43:28.615Z,66.66
2022-11-24T16:45:00.280Z,67.06
2022-11-24T16:46:32.275Z,66.96
2022-11-24T16:48:04.273Z,67.24
2022-11-24T16:49:36.112Z,66.99
2022-11-24T16:51:10.009Z,67.17
2022-11-24T16:52:41.762Z,67.48
2022-11-24T16:54:13.406Z,67.42
2022-11-24T16:55:56.657Z,67.52
2022-11-24T16:57:28.357Z,67.76
2022-11-24T16:59:00.135Z,67.60
2022-11-24T17:00:31.853Z,67.77
2022-11-24T17:02:03.870Z,67.54
2022-11-24T17:03:38.216Z,68.08
2022-11-24T17:05:09.982Z,68.00
2022-11-24T17:06:41.793Z,68.27
2022-11-24T17:08:13.390Z,68.07
2022-11-24T17:09:45.253Z,68.05
2022-11-24T17:11:21.992Z,67.94
2022-11-24T17:12:53.678Z,68.17
2022-11-24T17:14:25.701Z,68.24
2022-11-24T17:15:57.324Z,68.21
2022-11-24T17:17:28.949Z,68.15
2022-11-24T17:19:00.629Z,68.33
2022-11-24T17:20:32.415Z,68.54
2022-11-24T17:22:04.173Z,68.57
2022-11-24T17:23:35.897Z,68.35
2022-11-24T17:25:08.745Z,68.56
2022-11-24T17:26:46.084Z,68.61
2022-11-24T17:28:20.442Z,68.62
2022-11-24T17:29:52.156Z,68.65
2022-11-24T17:31:25.756Z,68.85
2022-11-24T17:32:57.440Z,68.47
2022-11-24T17:34:29.110Z,68.42
2022-11-24T17:36:04.757Z,68.63
2022-11-24T17:37:37.006Z,68.57
2022-11-24T17:39:09.452Z,68.60
2022-11-24T17:40:46.495Z,68.61
2022-11-24T17:42:19.513Z,68.27
2022-11-24T17:43:51.755Z,68.23
2022-11-24T17:45:23.384Z,68.62
2022-11-24T17:46:55.366Z,68.37
2022-11-24T17:48:27.767Z,68.50
2022-11-24T17:49:59.739Z,68.60
2022-11-24T17:51:31.398Z,68.62
2022-11-24T17:53:03.020Z,68.76
2022-11-24T17:54:49.999Z,68.78
2022-11-24T17:56:23.751Z,68.62
2022-11-24T17:57:57.325Z,68.86
2022-11-24T17:59:29.030Z,68.85
2022-11-24T18:01:01.597Z,68.76
2022-11-24T18:02:33.668Z,68.57
2022-11-24T18:04:05.416Z,68.83
2022-11-24T18:05:37.548Z,68.64
2022-11-24T18:07:09.289Z,68.93
2022-11-24T18:08:42.952Z,69.05
2022-11-24T18:10:14.775Z,68.79
2022-11-24T18:11:47.745Z,68.97
2022-11-24T18:13:41.138Z,68.95
2022-11-24T18:15:12.462Z,69.13
2022-11-24T18:16:44.139Z,68.73
2022-11-24T18:18:15.782Z,68.78
2022-11-24T18:19:47.394Z,68.85
2022-11-24T18:21:19.212Z,68.74
2022-11-24T18:23:05.006Z,69.05
2022-11-24T18:24:38.055Z,68.71
2022-11-24T18:26:12.526Z,68.68
2022-11-24T18:27:44.262Z,68.93
2022-11-24T18:29:17.295Z,68.46
2022-11-24T18:30:49.331Z,68.83
2022-11-24T18:32:21.032Z,68.56
2022-11-24T18:33:52.739Z,68.56
2022-11-24T18:35:24.514Z,68.19
2022-11-24T18:36:56.155Z,68.42
2022-11-24T18:38:28.719Z,68.27
2022-11-24T18:40:00.422Z,68.58
2022-11-24T18:41:32.407Z,68.16
2022-11-24T18:43:04.187Z,67.94
2022-11-24T18:44:37.573Z,67.91
2022-11-24T18:46:11.782Z,68.11
2022-11-24T18:47:43.424Z,67.60
2022-11-24T18:49:15.049Z,67.90
2022-11-24T18:50:50.466Z,68.08
2022-11-24T18:52:22.126Z,67.74
2022-11-24T18:53:54.558Z,68.07
2022-11-24T18:55:26.264Z,67.89
2022-11-24T18:57:03.090Z,67.91
2022-11-24T18:58:35.554Z,67.56
2022-11-24T19:00:10.921Z,67.58
2022-11-24T19:01:42.663Z,67.36
2022-11-24T19:03:14.445Z,67.37
2022-11-24T19:04:46.055Z,67.74
2022-11-24T19:06:19.876Z,67.58
2022-11-24T19:07:51.591Z,67.39
2022-11-24T19:09:25.341Z,67.46
2022-11-24T19:10:57.189Z,67.48
2022-11-24T19:12:28.863Z,67.70
2022-11-24T19:14:00.953Z,67.64
2022-11-24T19:15:34.620Z,67.45
2022-11-24T19:17:06.282Z,67.33
2022-11-24T19:18:38.281Z,67.59
2022-11-24T19:20:10.760Z,67.53
2022-11-24T19:21:42.495Z,67.82
2022-11-24T19:23:14.236Z,67.70
2022-11-24T19:24:46.573Z,67.94
2022-11-24T19:26:18.752Z,68.57
2022-11-24T19:27:50.478Z,68.26
2022-11-24T19:29:22.271Z,68.06
2022-11-24T19:30:59.808Z,68.23
2022-11-24T19:32:32.193Z,68.71
2022-11-24T19:34:05.770Z,68.35
2022-11-24T19:35:37.416Z,68.56
2022-11-24T19:37:09.099Z,68.79
2022-11-24T19:38:42.367Z,69.59
2022-11-24T19:40:14.736Z,69.12
2022-11-24T19:41:46.433Z,69.76
2022-11-24T19:43:18.033Z,69.49
2022-11-24T19:44:54.751Z,69.28
2022-11-24T19:46:30.152Z,69.50
2022-11-24T19:48:01.835Z,69.36
2022-11-24T19:49:33.442Z,69.31
2022-11-24T19:51:07.187Z,69.85
2022-11-24T19:52:38.955Z,69.32
2022-11-24T19:54:12.913Z,70.00
2022-11-24T19:55:44.552Z,69.15
2022-11-24T19:57:16.168Z,69.77
2022-11-24T19:58:49.206Z,69.96
2022-11-24T20:00:21.180Z,69.56
2022-11-24T20:01:54.499Z,69.93
2022-11-24T20:03:26.302Z,70.51
2022-11-24T20:04:57.996Z,69.98
2022-11-24T20:06:31.262Z,70.72
2022-11-24T20:08:03.004Z,70.70
2022-11-24T20:09:34.750Z,69.96
2022-11-24T20:11:08.449Z,70.99
2022-11-24T20:12:40.059Z,70.98
2022-11-24T20:14:12.926Z,69.97
2022-11-24T20:15:44.586Z,70.09
2022-11-24T20:17:17.621Z,70.69
2022-11-24T20:18:49.332Z,70.67
2022-11-24T20:20:20.978Z,70.80
2022-11-24T20:21:53.005Z,70.85
2022-11-24T20:23:24.645Z,70.43
2022-11-24T20:24:56.365Z,70.95
2022-11-24T20:26:31.025Z,70.37
2022-11-24T20:28:02.686Z,70.17
2022-11-24T20:29:34.342Z,70.90
2022-11-24T20:31:07.672Z,70.66